createdAt,value
2019-02-16T00:06:11.037Z,101079.27
2019-02-16T00:11:34.727Z,101082.22
2019-02-16T00:14:25.743Z,101093.03
2019-02-16T00:17:14.843Z,101082.92
2019-02-16T00:19:44.968Z,101085.73
2019-02-16T00:22:34.004Z,101098.59
2019-02-16T00:25:23.114Z,101088.27
2019-02-16T00:27:53.473Z,101089.72
2019-02-16T00:33:26.930Z,101091.53
2019-02-16T00:35:57.008Z,101090.63
2019-02-16T00:38:26.984Z,101088.63
2019-02-16T00:41:16.064Z,101088.20
2019-02-16T00:43:46.212Z,101086.39
2019-02-16T00:46:16.174Z,101085.78
2019-02-16T00:49:39.976Z,101081.78
2019-02-16T00:51:57.393Z,101090.17
2019-02-16T00:54:46.802Z,101085.75
2019-02-16T00:57:19.171Z,101077.14
2019-02-16T00:59:49.193Z,101078.59
2019-02-16T01:02:38.822Z,101074.76
2019-02-16T01:05:40.377Z,101072.45
2019-02-16T01:07:59.806Z,101081.89
2019-02-16T01:13:37.666Z,101073.52
2019-02-16T01:16:26.750Z,101065.97
2019-02-16T01:18:59.484Z,101074.55
2019-02-16T01:21:49.671Z,101074.55
2019-02-16T01:24:19.786Z,101063.63
2019-02-16T01:27:11.352Z,101069.95
2019-02-16T01:30:00.165Z,101076.25
2019-02-16T01:32:49.322Z,101075.98
2019-02-16T01:35:38.375Z,101073.49
2019-02-16T01:38:27.517Z,101070.13
2019-02-16T01:41:17.293Z,101072.73
2019-02-16T01:47:40.789Z,101072.92
2019-02-16T01:50:19.662Z,101069.05
2019-02-16T01:53:08.341Z,101072.16
2019-02-16T01:59:10.842Z,101074.79
2019-02-16T02:01:59.890Z,101068.20
2019-02-16T02:04:29.945Z,101080.70
2019-02-16T02:07:02.197Z,101069.69
2019-02-16T02:09:51.135Z,101065.95
2019-02-16T02:12:21.259Z,101057.97
2019-02-16T02:14:51.772Z,101065.13
2019-02-16T02:17:22.148Z,101059.22
2019-02-16T02:20:23.092Z,101061.88
2019-02-16T02:25:43.546Z,101044.41
2019-02-16T02:28:13.618Z,101043.77
2019-02-16T02:31:02.776Z,101046.06
2019-02-16T02:33:51.879Z,101044.73
2019-02-16T02:39:23.585Z,101047.10
2019-02-16T02:45:24.191Z,101042.07
2019-02-16T02:47:54.254Z,101035.05
2019-02-16T02:53:04.636Z,101035.23
2019-02-16T02:55:53.600Z,101036.33
2019-02-16T02:58:42.616Z,101034.06
2019-02-16T03:01:12.647Z,101028.63
2019-02-16T03:03:42.736Z,101033.39
2019-02-16T03:09:39.676Z,101028.66
2019-02-16T03:12:28.791Z,101033.73
2019-02-16T03:18:03.600Z,101031.80
2019-02-16T03:20:33.761Z,101024.42
2019-02-16T03:23:23.240Z,101023.71
2019-02-16T03:26:32.241Z,101023.26
2019-02-16T03:29:27.353Z,101021.67
2019-02-16T03:32:35.474Z,101017.57
2019-02-16T03:35:43.625Z,101012.51
2019-02-16T03:38:51.738Z,101018.22
2019-02-16T03:41:21.719Z,101018.78
2019-02-16T03:43:51.723Z,101024.59
2019-02-16T03:49:23.366Z,101031.69
2019-02-16T03:51:53.518Z,101037.91
2019-02-16T03:54:24.535Z,101041.39
2019-02-16T03:57:13.525Z,101047.73
2019-02-16T03:59:43.501Z,101044.86
2019-02-16T04:02:13.615Z,101047.06
2019-02-16T04:04:43.961Z,101045.37
2019-02-16T04:07:13.913Z,101050.09
2019-02-16T04:09:43.868Z,101038.39
2019-02-16T04:12:13.926Z,101041.28
2019-02-16T04:17:52.593Z,101028.24
2019-02-16T04:20:22.673Z,101033.08
2019-02-16T04:22:52.620Z,101035.37
2019-02-16T04:25:41.652Z,101039.10
2019-02-16T04:28:11.715Z,101041.16
2019-02-16T04:30:41.788Z,101033.19
2019-02-16T04:33:30.775Z,101041.41
2019-02-16T04:36:03.359Z,101041.11
2019-02-16T04:38:33.323Z,101040.85
2019-02-16T04:41:22.294Z,101033.79
2019-02-16T04:46:53.613Z,101018.30
2019-02-16T04:49:23.648Z,101018.56
2019-02-16T04:52:12.291Z,101014.35
2019-02-16T04:57:45.605Z,101016.83
2019-02-16T05:00:34.681Z,101010.72
2019-02-16T05:03:23.797Z,101013.66
2019-02-16T05:05:53.765Z,100995.42
2019-02-16T05:09:03.946Z,101004.47
2019-02-16T05:11:33.920Z,101008.69
2019-02-16T05:14:22.689Z,101014.14
2019-02-16T05:16:54.528Z,101013.28
2019-02-16T05:19:43.551Z,101019.69
2019-02-16T05:22:13.612Z,101026.42
2019-02-16T05:27:35.864Z,101016.37
2019-02-16T05:30:06.375Z,101017.71
2019-02-16T05:32:55.437Z,101019.41
2019-02-16T05:35:25.415Z,101015.73
2019-02-16T05:40:37.470Z,101029.97
2019-02-16T05:43:28.263Z,101020.34
2019-02-16T05:45:58.247Z,101019.38
2019-02-16T05:48:47.276Z,101021.19
2019-02-16T05:51:17.138Z,101021.66
2019-02-16T05:53:47.176Z,101015.51
2019-02-16T05:56:17.126Z,101017.45
2019-02-16T05:59:08.036Z,101028.06
2019-02-16T06:01:58.991Z,101015.03
2019-02-16T06:04:48.197Z,101011.94
2019-02-16T06:07:18.142Z,101015.41
2019-02-16T06:09:48.238Z,101015.08
2019-02-16T06:12:37.233Z,101012.30
2019-02-16T06:18:18.665Z,101019.52
2019-02-16T06:20:51.204Z,101024.93
2019-02-16T06:23:21.212Z,101021.91
2019-02-16T06:29:29.906Z,101031.72
2019-02-16T06:38:20.697Z,101039.84
2019-02-16T06:40:50.571Z,101044.94
2019-02-16T06:43:20.445Z,101051.91
2019-02-16T06:46:09.397Z,101051.91
2019-02-16T06:48:58.220Z,101053.83
2019-02-16T06:51:28.378Z,101054.86
2019-02-16T06:54:17.432Z,101046.58
2019-02-16T06:59:53.319Z,101040.39
2019-02-16T07:05:08.697Z,101047.34
2019-02-16T07:10:20.271Z,101061.08
2019-02-16T07:13:03.090Z,101057.52
2019-02-16T07:19:01.437Z,101054.75
2019-02-16T07:24:14.001Z,101058.07
2019-02-16T07:27:03.024Z,101067.87
2019-02-16T07:29:32.930Z,101064.98
2019-02-16T07:34:51.772Z,101065.36
2019-02-16T07:37:40.523Z,101079.59
2019-02-16T07:40:10.437Z,101071.72
2019-02-16T07:43:01.510Z,101081.09
2019-02-16T07:45:51.415Z,101086.86
2019-02-16T07:51:41.430Z,101082.77
2019-02-16T07:54:30.081Z,101076.47
2019-02-16T07:57:39.509Z,101080.55
2019-02-16T08:00:47.304Z,101086.06
2019-02-16T08:06:57.321Z,101091.86
2019-02-16T08:09:47.758Z,101087.14
2019-02-16T08:12:56.328Z,101096.66
2019-02-16T08:16:05.032Z,101094.05
2019-02-16T08:19:12.873Z,101091.37
2019-02-16T08:22:04.573Z,101100.34
2019-02-16T08:25:12.372Z,101093.38
2019-02-16T08:28:01.118Z,101092.61
2019-02-16T08:31:09.832Z,101085.95
2019-02-16T08:33:59.329Z,101078.22
2019-02-16T08:36:51.333Z,101080.98
2019-02-16T08:39:40.826Z,101071.25
2019-02-16T08:42:49.397Z,101072.94
2019-02-16T08:45:38.946Z,101078.22
2019-02-16T08:48:47.550Z,101066.63
2019-02-16T08:51:24.395Z,101071.27
2019-02-16T08:54:05.827Z,101078.08
2019-02-16T08:57:11.348Z,101077.63
2019-02-16T09:00:07.356Z,101077.34
2019-02-16T09:06:23.500Z,101071.36
2019-02-16T09:09:13.006Z,101071.83
2019-02-16T09:12:21.584Z,101073.07
2019-02-16T09:15:12.284Z,101077.56
2019-02-16T09:18:13.994Z,101074.22
2019-02-16T09:21:03.527Z,101071.39
2019-02-16T09:23:59.186Z,101068.87
2019-02-16T09:26:44.818Z,101059.66
2019-02-16T09:29:36.606Z,101060.63
2019-02-16T09:32:26.071Z,101052.08
2019-02-16T09:35:36.136Z,101060.92
2019-02-16T09:38:49.973Z,101057.92
2019-02-16T09:41:58.617Z,101061.99
2019-02-16T09:44:48.250Z,101060.80
2019-02-16T09:47:38.114Z,101057.14
2019-02-16T09:53:37.544Z,101061.52
2019-02-16T09:56:27.016Z,101058.31
2019-02-16T09:59:35.660Z,101060.97
2019-02-16T10:02:39.487Z,101060.97
2019-02-16T10:05:48.057Z,101050.44
2019-02-16T10:08:56.690Z,101065.13
2019-02-16T10:11:57.059Z,101063.36
2019-02-16T10:18:09.397Z,101047.56
2019-02-16T10:20:59.188Z,101061.95
2019-02-16T10:24:07.759Z,101073.01
2019-02-16T10:27:38.984Z,101072.13
2019-02-16T10:30:27.203Z,101072.13
2019-02-16T10:33:35.020Z,101066.12
2019-02-16T10:36:43.650Z,101071.31
2019-02-16T10:39:33.260Z,101076.92
2019-02-16T10:42:12.438Z,101080.14
2019-02-16T10:45:02.043Z,101078.66
2019-02-16T10:48:02.586Z,101083.03
2019-02-16T10:54:41.161Z,101076.01
2019-02-16T11:01:05.604Z,101065.28
2019-02-16T11:03:54.626Z,101067.15
2019-02-16T11:07:04.298Z,101032.06
2019-02-16T11:09:59.569Z,101032.06
2019-02-16T11:12:48.696Z,101044.20
2019-02-16T11:15:30.503Z,101038.65
2019-02-16T11:18:22.492Z,101040.38
2019-02-16T11:21:27.946Z,101028.64
2019-02-16T11:24:22.189Z,101029.30
2019-02-16T11:27:11.675Z,101027.77
2019-02-16T11:30:05.725Z,101027.30
2019-02-16T11:32:49.163Z,101029.64
2019-02-16T11:35:53.511Z,101029.96
2019-02-16T11:38:44.001Z,101015.11
2019-02-16T11:41:53.034Z,101022.70
2019-02-16T11:44:57.811Z,101015.27
2019-02-16T11:48:07.685Z,101009.00
2019-02-16T11:51:21.080Z,101021.44
2019-02-16T11:54:27.185Z,101009.34
2019-02-16T11:57:17.446Z,101014.39
2019-02-16T12:00:40.174Z,101014.09
2019-02-16T12:03:12.952Z,101012.08
2019-02-16T12:09:13.684Z,100992.83
2019-02-16T12:12:04.319Z,100983.32
2019-02-16T12:18:27.712Z,100982.14
2019-02-16T12:21:18.003Z,100976.06
2019-02-16T12:24:12.829Z,100975.45
2019-02-16T12:39:20.045Z,100966.75
2019-02-16T12:42:10.726Z,100958.27
2019-02-16T12:44:52.816Z,100956.38
2019-02-16T12:48:01.263Z,100951.00
2019-02-16T12:51:00.225Z,100949.01
2019-02-16T12:53:59.950Z,100944.14
2019-02-16T12:56:42.088Z,100931.60
2019-02-16T12:59:25.855Z,100926.56
2019-02-16T13:02:37.171Z,100911.19
2019-02-16T13:05:50.437Z,100911.19
2019-02-16T13:08:43.085Z,100927.63
2019-02-16T13:11:42.352Z,100922.91
2019-02-16T13:15:03.167Z,100919.94
2019-02-16T13:17:45.122Z,100921.64
2019-02-16T13:20:56.334Z,100904.33
2019-02-16T13:23:46.176Z,100904.33
2019-02-16T13:26:36.622Z,100911.32
2019-02-16T13:29:46.445Z,100904.52
2019-02-16T13:35:55.010Z,100899.44
2019-02-16T13:38:46.850Z,100901.45
2019-02-16T13:41:57.171Z,100901.80
2019-02-16T13:44:47.421Z,100895.20
2019-02-16T13:47:41.822Z,100899.43
2019-02-16T13:50:22.978Z,100888.27
2019-02-16T13:54:04.543Z,100881.88
2019-02-16T13:56:40.398Z,100888.53
2019-02-16T14:03:09.664Z,100889.81
2019-02-16T14:06:21.719Z,100875.36
2019-02-16T14:09:15.709Z,100879.81
2019-02-16T14:12:05.623Z,100879.81
2019-02-16T14:15:11.102Z,100877.04
2019-02-16T14:18:01.972Z,100877.04
2019-02-16T14:20:34.371Z,100876.23
2019-02-16T14:26:07.830Z,100875.90
2019-02-16T14:28:41.062Z,100879.09
2019-02-16T14:31:33.076Z,100875.61
2019-02-16T14:34:28.471Z,100864.17
2019-02-16T14:40:23.264Z,100870.42
2019-02-16T14:46:38.288Z,100878.37
2019-02-16T14:51:58.975Z,100863.54
2019-02-16T14:54:35.405Z,100867.14
2019-02-16T14:57:11.075Z,100858.27
2019-02-16T14:59:43.669Z,100858.27
2019-02-16T15:02:16.804Z,100861.23
2019-02-16T15:04:48.585Z,100855.77
2019-02-16T15:07:39.569Z,100853.74
2019-02-16T15:10:14.708Z,100853.36
2019-02-16T15:12:48.243Z,100858.65
2019-02-16T15:15:40.159Z,100854.72
2019-02-16T15:18:11.532Z,100853.87
2019-02-16T15:20:43.508Z,100842.89
2019-02-16T15:23:17.171Z,100861.97
2019-02-16T15:26:00.513Z,100848.63
2019-02-16T15:28:26.036Z,100843.96
2019-02-16T15:30:57.595Z,100847.63
2019-02-16T15:33:47.843Z,100841.89
2019-02-16T15:36:40.723Z,100844.92
2019-02-16T15:39:19.863Z,100844.39
2019-02-16T15:41:52.632Z,100844.33
2019-02-16T15:44:23.839Z,100843.55
2019-02-16T15:46:55.706Z,100845.22
2019-02-16T15:49:48.432Z,100833.42
2019-02-16T15:52:22.088Z,100829.05
2019-02-16T15:55:44.952Z,100841.01
2019-02-16T15:58:06.195Z,100839.80
2019-02-16T16:00:39.565Z,100833.03
2019-02-16T16:03:30.317Z,100839.02
2019-02-16T16:09:31.007Z,100835.61
2019-02-16T16:12:39.902Z,100833.30
2019-02-16T16:15:31.240Z,100835.16
2019-02-16T16:18:37.056Z,100836.96
2019-02-16T16:21:14.892Z,100841.25
2019-02-16T16:24:27.006Z,100840.03
2019-02-16T16:27:21.222Z,100836.32
2019-02-16T16:33:54.862Z,100832.98
2019-02-16T16:37:07.175Z,100832.88
2019-02-16T16:40:16.326Z,100829.73
2019-02-16T16:43:11.550Z,100828.72
2019-02-16T16:46:02.349Z,100831.24
2019-02-16T16:49:13.796Z,100828.88
2019-02-16T16:52:24.424Z,100830.14
2019-02-16T16:58:45.102Z,100837.27
2019-02-16T17:01:39.052Z,100838.08
2019-02-16T17:04:29.226Z,100841.98
2019-02-16T17:13:53.574Z,100836.98
2019-02-16T17:17:02.395Z,100844.03
2019-02-16T17:26:16.598Z,100849.08
2019-02-16T17:29:07.567Z,100842.89
2019-02-16T17:32:19.571Z,100843.23
2019-02-16T17:35:09.170Z,100846.20
2019-02-16T17:38:18.336Z,100860.29
2019-02-16T17:41:46.366Z,100851.27
2019-02-16T17:44:37.845Z,100849.75
2019-02-16T17:47:27.248Z,100847.33
2019-02-16T17:50:07.645Z,100847.33
2019-02-16T17:52:58.919Z,100854.30
2019-02-16T17:55:56.742Z,100853.77
2019-02-16T17:58:41.108Z,100852.11
2019-02-16T18:04:58.359Z,100849.69
2019-02-16T18:08:03.284Z,100849.16
2019-02-16T18:10:56.639Z,100847.07
2019-02-16T18:14:04.821Z,100847.07
2019-02-16T18:16:55.892Z,100855.66
2019-02-16T18:20:05.612Z,100852.60
2019-02-16T18:26:12.993Z,100847.83
2019-02-16T18:28:57.720Z,100853.16
2019-02-16T18:34:45.503Z,100835.59
2019-02-16T18:41:23.179Z,100838.19
2019-02-16T18:47:42.935Z,100828.17
2019-02-16T18:51:05.065Z,100818.45
2019-02-16T18:53:44.911Z,100822.38
2019-02-16T18:56:38.395Z,100812.12
2019-02-16T18:59:30.523Z,100820.70
2019-02-16T19:02:39.837Z,100820.70
2019-02-16T19:05:30.095Z,100807.63
2019-02-16T19:08:38.924Z,100807.63
2019-02-16T19:11:31.259Z,100809.47
2019-02-16T19:14:45.651Z,100807.44
2019-02-16T19:17:35.725Z,100807.44
2019-02-16T19:20:46.863Z,100822.88
2019-02-16T19:23:54.148Z,100786.24
2019-02-16T19:26:45.628Z,100810.86
2019-02-16T19:29:35.204Z,100810.60
2019-02-16T19:32:43.187Z,100802.36
2019-02-16T19:35:36.377Z,100815.23
2019-02-16T19:38:28.190Z,100815.23
2019-02-16T19:41:09.315Z,100814.03
2019-02-16T19:44:00.220Z,100808.85
2019-02-16T19:46:50.520Z,100812.56
2019-02-16T19:49:59.855Z,100811.76
2019-02-16T19:52:52.310Z,100814.16
2019-02-16T20:02:12.425Z,100805.47
2019-02-16T20:05:21.860Z,100799.87
2019-02-16T20:08:30.048Z,100803.59
2019-02-16T20:11:40.477Z,100810.83
2019-02-16T20:15:14.880Z,100811.39
2019-02-16T20:18:27.693Z,100814.11
2019-02-16T20:24:31.079Z,100820.66
2019-02-16T20:27:54.280Z,100804.31
2019-02-16T20:30:34.645Z,100804.31
2019-02-16T20:33:43.557Z,100807.03
2019-02-16T20:36:40.828Z,100809.81
2019-02-16T20:39:34.773Z,100802.97
2019-02-16T20:45:53.216Z,100806.27
2019-02-16T20:49:01.377Z,100804.65
2019-02-16T20:52:27.347Z,100803.80
2019-02-16T20:58:25.570Z,100802.38
2019-02-16T21:01:15.218Z,100806.35
2019-02-16T21:04:05.989Z,100812.63
2019-02-16T21:06:56.384Z,100822.12
2019-02-16T21:10:20.064Z,100814.74
2019-02-16T21:13:12.638Z,100817.59
2019-02-16T21:16:29.326Z,100807.78
2019-02-16T21:19:38.480Z,100812.94
2019-02-16T21:23:03.829Z,100816.86
2019-02-16T21:32:12.003Z,100811.13
2019-02-16T21:35:13.690Z,100811.33
2019-02-16T21:38:19.948Z,100805.23
2019-02-16T21:41:02.393Z,100805.23
2019-02-16T21:44:04.248Z,100808.30
2019-02-16T21:50:58.479Z,100820.98
2019-02-16T21:56:49.092Z,100809.55
2019-02-16T22:00:00.775Z,100808.53
2019-02-16T22:02:58.315Z,100859.84
2019-02-16T22:05:48.538Z,100859.84
2019-02-16T22:08:59.494Z,100804.50
2019-02-16T22:11:50.148Z,100805.31
2019-02-16T22:14:28.862Z,100797.80
2019-02-16T22:17:44.881Z,100798.00
2019-02-16T22:20:17.403Z,100798.00
2019-02-16T22:23:09.615Z,100794.13
2019-02-16T22:26:11.798Z,100791.98
2019-02-16T22:29:02.854Z,100794.77
2019-02-16T22:32:17.171Z,100796.14
2019-02-16T22:35:26.083Z,100797.55
2019-02-16T22:38:06.361Z,100800.22
2019-02-16T22:40:57.970Z,100796.75
2019-02-16T22:46:57.145Z,100801.92
2019-02-16T22:49:47.379Z,100798.20
2019-02-16T22:53:02.107Z,100796.86
2019-02-16T22:58:52.843Z,100806.92
2019-02-16T23:01:35.136Z,100783.83
2019-02-16T23:04:25.021Z,100805.15
2019-02-16T23:06:58.170Z,100803.89
2019-02-16T23:18:04.454Z,100800.02
2019-02-16T23:21:15.827Z,100800.70
2019-02-16T23:24:05.862Z,100802.52
2019-02-16T23:26:39.006Z,100792.59
2019-02-16T23:29:40.743Z,100791.94
2019-02-16T23:32:23.839Z,100793.30
2019-02-16T23:35:13.629Z,100793.30
2019-02-16T23:37:59.029Z,100791.19
2019-02-16T23:40:36.382Z,100787.52
2019-02-16T23:43:26.298Z,100784.65
2019-02-16T23:46:15.434Z,100790.95
2019-02-16T23:49:05.375Z,100782.81
2019-02-16T23:51:55.211Z,100775.50
2019-02-16T23:54:26.051Z,100775.86
2019-02-16T23:57:10.895Z,100775.92
2019-02-16T23:59:29.337Z,100778.49
